Time;durP1;ratioP1;P1;durP2;ratioP2;P2;SDS_P1;SDS_P2;PMS_P1;PMS_P2;Temp;Humidity;BMP_temperature;BMP_pressure;BME280_temperature;BME280_humidity;BME280_pressure;Samples;Min_cycle;Max_cycle;Signal;HPM_P1;HPM_P2
2022/10/27 00:01:04;;;;;;;1.87;1.73;;;;;;;14.35;78.62;100205.97;4348220;33;33572;-71
2022/10/27 00:03:32;;;;;;;1.77;1.60;;;;;;;15.11;74.78;100198.81;4348153;33;34669;-70
2022/10/27 00:06:04;;;;;;;2.12;1.85;;;;;;;15.59;70.44;100203.28;4348087;33;35042;-70
2022/10/27 00:08:33;;;;;;;2.62;2.33;;;;;;;15.13;71.39;100196.19;4348132;33;34478;-70
2022/10/27 00:11:03;;;;;;;1.08;1.08;;;;;;;14.98;70.57;100211.28;4348095;33;34374;-71
2022/10/27 00:13:32;;;;;;;1.40;1.33;;;;;;;13.29;79.36;100210.50;4348085;33;33341;-70
2022/10/27 00:16:02;;;;;;;2.05;1.92;;;;;;;12.91;82.59;100214.22;4348293;33;35930;-70
2022/10/27 00:18:30;;;;;;;3.30;2.25;;;;;;;13.17;81.10;100213.22;4347999;33;34586;-69
2022/10/27 00:21:01;;;;;;;1.77;1.67;;;;;;;14.13;75.44;100203.59;4348134;33;33482;-71
2022/10/27 00:23:30;;;;;;;1.40;1.30;;;;;;;14.58;71.64;100205.72;4347762;33;33105;-70
2022/10/27 00:25:59;;;;;;;1.48;1.37;;;;;;;14.38;72.09;100209.44;4334498;33;35013;-70
2022/10/27 00:28:28;;;;;;;3.83;1.73;;;;;;;14.49;70.03;100205.78;4334761;33;34602;-70
2022/10/27 00:31:00;;;;;;;2.08;1.33;;;;;;;14.28;71.13;100213.03;4347801;33;33521;-71
2022/10/27 00:33:29;;;;;;;0.90;0.90;;;;;;;14.35;70.82;100205.97;4334583;33;33834;-70
2022/10/27 00:36:05;;;;;;;2.78;1.65;;;;;;;14.20;71.66;100205.25;4347619;33;35116;-71
2022/10/27 00:38:34;;;;;;;1.25;1.20;;;;;;;12.75;77.56;100212.59;4347724;33;34450;-70
2022/10/27 00:41:02;;;;;;;0.85;0.85;;;;;;;13.21;76.97;100214.91;4347632;33;34161;-70
2022/10/27 00:43:34;;;;;;;2.22;2.10;;;;;;;12.67;81.55;100213.50;4347732;33;33812;-70
2022/10/27 00:46:23;;;;;;;1.20;1.10;;;;;;;12.67;81.49;100223.06;4347545;33;35115;-70
2022/10/27 00:48:54;;;;;;;2.35;2.03;;;;;;;13.76;75.57;100226.69;4334442;33;34423;-70
2022/10/27 00:51:23;;;;;;;2.75;2.28;;;;;;;13.65;75.55;100224.16;4334335;33;33442;-70
2022/10/27 00:53:51;;;;;;;0.95;0.93;;;;;;;13.09;77.76;100226.31;4334563;33;34733;-69
2022/10/27 00:56:19;;;;;;;3.00;2.72;;;;;;;13.50;76.56;100232.16;4347364;33;35076;-70
2022/10/27 00:58:48;;;;;;;1.02;1.02;;;;;;;12.87;79.50;100228.22;4334148;33;34630;-71
2022/10/27 01:01:16;;;;;;;1.37;1.15;;;;;;;13.08;78.55;100235.06;4347478;33;34072;-71
2022/10/27 01:03:44;;;;;;;1.20;1.10;;;;;;;13.49;77.00;100236.53;4347380;33;34843;-71
2022/10/27 01:06:13;;;;;;;2.62;2.03;;;;;;;13.18;78.00;100235.84;4334315;33;35946;-70
2022/10/27 01:08:41;;;;;;;0.65;0.65;;;;;;;12.97;79.87;100231.62;4347299;33;34398;-70
2022/10/27 01:11:09;;;;;;;1.58;1.48;;;;;;;13.21;79.85;100241.06;4347851;33;33444;-71
2022/10/27 01:13:37;;;;;;;1.33;1.27;;;;;;;13.81;79.74;100232.75;4344744;33;152146;-71
2022/10/27 01:16:12;;;;;;;3.87;3.58;;;;;;;14.14;80.07;100238.53;4336148;33;35065;-71
2022/10/27 01:19:06;;;;;;;0.88;0.88;;;;;;;14.50;79.60;100239.84;4336243;33;34556;-70
2022/10/27 01:21:52;;;;;;;1.27;1.17;;;;;;;14.37;81.56;100239.12;4349360;33;33440;-69
2022/10/27 01:24:35;;;;;;;2.42;2.22;;;;;;;14.50;81.62;100238.97;4349228;33;34507;-70
2022/10/27 01:27:07;;;;;;;3.17;2.97;;;;;;;14.40;82.52;100243.47;4349386;33;35113;-70
2022/10/27 01:29:50;;;;;;;3.95;3.55;;;;;;;14.79;81.01;100251.75;4336224;33;34506;-71
2022/10/27 01:32:21;;;;;;;2.65;2.40;;;;;;;14.43;82.55;100247.81;4349406;33;33594;-71
2022/10/27 01:34:53;;;;;;;2.58;2.37;;;;;;;14.59;82.36;100249.38;4336057;33;33116;-70
2022/10/27 01:37:28;;;;;;;1.58;1.52;;;;;;;14.68;82.44;100246.66;4349309;33;35937;-70
2022/10/27 01:39:59;;;;;;;1.83;1.73;;;;;;;14.60;82.59;100245.88;4336127;33;35168;-71
2022/10/27 01:42:50;;;;;;;6.78;2.33;;;;;;;14.96;80.67;100244.53;4336112;33;33509;-71
2022/10/27 01:45:22;;;;;;;3.10;2.80;;;;;;;15.16;79.82;100241.59;4336064;33;34800;-71
2022/10/27 01:47:51;;;;;;;1.25;1.25;;;;;;;14.89;80.39;100234.13;4335983;33;35105;-70
2022/10/27 01:50:26;;;;;;;2.05;1.70;;;;;;;14.57;82.29;100243.25;4335927;33;34371;-71
2022/10/27 01:53:09;;;;;;;1.95;1.73;;;;;;;15.00;80.01;100249.69;4349354;33;33269;-70
2022/10/27 01:55:50;;;;;;;2.70;2.40;;;;;;;14.95;80.72;100245.41;4349505;33;34936;-71
2022/10/27 01:58:49;;;;;;;3.12;2.85;;;;;;;15.05;79.95;100247.88;4349243;33;35172;-71
2022/10/27 02:01:17;;;;;;;1.73;1.60;;;;;;;14.83;81.87;100245.56;4349088;33;34495;-71
2022/10/27 02:04:00;;;;;;;2.75;2.50;;;;;;;14.81;81.29;100243.84;4349169;33;33570;-70
2022/10/27 02:06:40;;;;;;;1.77;1.65;;;;;;;14.97;79.99;100246.25;4349228;33;34793;-69
2022/10/27 02:09:15;;;;;;;2.87;2.53;;;;;;;15.22;79.05;100243.25;4349117;33;34872;-71
2022/10/27 02:11:45;;;;;;;3.58;3.08;;;;;;;15.23;78.11;100252.88;4349190;33;35854;-70
2022/10/27 02:14:14;;;;;;;1.92;1.62;;;;;;;15.31;78.20;100245.72;4335803;33;33620;-70
2022/10/27 02:16:51;;;;;;;2.42;2.22;;;;;;;15.05;79.65;100258.38;4335670;33;34266;-70
2022/10/27 02:19:32;;;;;;;2.10;1.90;;;;;;;14.66;80.78;100250.16;4349070;33;34625;-70
2022/10/27 02:22:01;;;;;;;1.98;1.85;;;;;;;14.84;80.06;100249.94;4348706;33;34462;-71
2022/10/27 02:24:30;;;;;;;4.72;3.78;;;;;;;14.54;81.62;100251.16;4335414;33;33427;-71
2022/10/27 02:27:01;;;;;;;3.72;3.42;;;;;;;14.68;81.86;100251.00;4348948;33;33897;-71
2022/10/27 02:29:40;;;;;;;3.33;3.05;;;;;;;14.80;80.56;100258.72;4348970;33;35023;-69
2022/10/27 02:32:14;;;;;;;4.05;2.22;;;;;;;14.79;80.39;100249.12;4335764;33;34414;-70
2022/10/27 02:34:43;;;;;;;2.97;2.45;;;;;;;14.73;80.81;100250.06;4335730;33;33565;-70
2022/10/27 02:37:20;;;;;;;6.70;4.60;;;;;;;14.71;81.05;100248.34;4348879;33;33988;-70
2022/10/27 02:39:48;;;;;;;2.05;1.87;;;;;;;14.54;81.94;100259.91;4348803;33;35144;-70
2022/10/27 02:42:16;;;;;;;1.92;1.83;;;;;;;14.14;84.55;100257.72;4335617;33;34669;-71
2022/10/27 02:44:44;;;;;;;3.62;3.33;;;;;;;14.54;82.71;100262.53;4348914;33;34541;-70
2022/10/27 02:47:13;;;;;;;3.42;3.12;;;;;;;14.14;84.52;100259.47;4348751;33;33816;-71
2022/10/27 02:49:41;;;;;;;4.18;2.95;;;;;;;14.20;84.97;100262.03;4348753;33;35928;-70
2022/10/27 02:52:09;;;;;;;3.90;3.50;;;;;;;14.83;81.04;100263.94;4348708;33;34653;-71
2022/10/27 02:54:37;;;;;;;2.00;1.90;;;;;;;14.37;82.84;100270.56;4348822;33;34396;-70
2022/10/27 02:57:06;;;;;;;4.10;3.75;;;;;;;14.32;83.36;100268.88;4348845;33;34772;-71
2022/10/27 02:59:34;;;;;;;2.85;2.62;;;;;;;14.44;83.58;100266.12;4348726;33;35973;-70
2022/10/27 03:02:02;;;;;;;3.28;2.97;;;;;;;14.27;84.92;100257.59;4348696;33;34497;-70
2022/10/27 03:04:30;;;;;;;5.12;3.65;;;;;;;14.38;84.06;100258.31;4348787;33;33390;-71
2022/10/27 03:06:58;;;;;;;2.15;1.98;;;;;;;14.79;82.16;100251.75;4348496;33;33950;-69
2022/10/27 03:09:26;;;;;;;4.90;3.60;;;;;;;14.33;84.25;100258.41;4348746;33;34920;-71
2022/10/27 03:11:54;;;;;;;3.60;3.30;;;;;;;14.35;84.71;100264.47;4348787;33;34523;-70
2022/10/27 03:14:22;;;;;;;4.12;2.97;;;;;;;14.75;83.36;100265.78;4348705;33;34155;-70
2022/10/27 03:16:50;;;;;;;3.08;2.87;;;;;;;14.81;82.16;100265.72;4348640;33;34706;-70
2022/10/27 03:19:18;;;;;;;8.02;1.83;;;;;;;14.60;82.52;100270.31;4348637;33;35888;-68
2022/10/27 03:21:46;;;;;;;3.72;3.42;;;;;;;14.49;84.15;100272.19;4348487;33;34554;-71
2022/10/27 03:24:14;;;;;;;5.72;4.40;;;;;;;14.95;81.41;100269.00;4348403;33;33565;-70
2022/10/27 03:26:42;;;;;;;2.50;2.30;;;;;;;14.77;81.73;100264.00;4348723;33;34853;-71
2022/10/27 03:29:10;;;;;;;2.12;1.90;;;;;;;15.01;80.64;100273.28;4348572;33;35097;-70
2022/10/27 03:31:38;;;;;;;3.17;2.83;;;;;;;15.20;79.72;100281.78;4348404;33;35404;-71
2022/10/27 03:34:06;;;;;;;2.87;2.67;;;;;;;15.17;80.03;100279.19;4348120;33;34312;-70
2022/10/27 03:36:34;;;;;;;7.87;2.75;;;;;;;15.29;79.36;100271.13;4348494;33;33979;-71
2022/10/27 03:39:03;;;;;;;3.65;3.33;;;;;;;14.74;81.82;100279.78;4348389;33;36005;-70
2022/10/27 03:41:30;;;;;;;2.15;1.98;;;;;;;14.70;82.38;100278.97;4348423;33;35021;-70
2022/10/27 03:43:58;;;;;;;4.43;3.28;;;;;;;15.07;81.51;100280.19;4348484;33;33573;-71
2022/10/27 03:46:27;;;;;;;3.80;3.03;;;;;;;15.00;81.66;100281.19;4348672;33;34024;-70
2022/10/27 03:48:55;;;;;;;2.05;1.95;;;;;;;14.81;82.31;100280.53;4348345;33;35289;-70
2022/10/27 03:51:23;;;;;;;2.75;2.55;;;;;;;14.91;81.51;100282.16;4348372;33;34522;-71
2022/10/27 03:53:51;;;;;;;3.17;2.97;;;;;;;15.20;80.52;100279.16;4348352;33;33183;-70
2022/10/27 03:56:19;;;;;;;3.50;3.00;;;;;;;15.33;79.60;100280.69;4348212;33;33950;-70
2022/10/27 03:58:47;;;;;;;7.00;3.58;;;;;;;14.97;80.66;100289.97;4348329;33;35073;-70
2022/10/27 04:01:15;;;;;;;2.85;2.45;;;;;;;15.18;79.96;100280.94;4348244;33;34491;-70
2022/10/27 04:03:46;;;;;;;4.25;3.78;;;;;;;14.51;83.60;100288.75;4348230;33;33424;-70
2022/10/27 04:06:15;;;;;;;3.40;3.10;;;;;;;14.51;83.98;100282.66;4348141;33;34171;-70
2022/10/27 04:08:43;;;;;;;4.82;4.40;;;;;;;14.52;84.08;100282.59;4348109;33;35177;-70
2022/10/27 04:11:11;;;;;;;6.87;3.65;;;;;;;15.28;80.78;100286.91;4334830;33;35131;-71
2022/10/27 04:13:39;;;;;;;3.40;3.17;;;;;;;15.38;80.00;100292.88;4348158;33;34521;-71
2022/10/27 04:16:08;;;;;;;1.15;1.15;;;;;;;14.87;81.76;100291.84;4348056;33;34094;-70
2022/10/27 04:18:36;;;;;;;2.20;2.00;;;;;;;15.44;78.93;100292.78;4347923;33;34928;-70
2022/10/27 04:21:05;;;;;;;3.00;2.80;;;;;;;14.74;82.56;100292.91;4347910;33;34520;-71
2022/10/27 04:23:33;;;;;;;2.45;1.85;;;;;;;14.71;83.10;100295.53;4347678;33;34323;-70
2022/10/27 04:26:01;;;;;;;4.55;4.20;;;;;;;14.95;82.13;100310.97;4347881;33;34677;-71
2022/10/27 04:28:29;;;;;;;3.78;2.12;;;;;;;15.47;79.59;100304.09;4347807;33;35059;-71
2022/10/27 04:30:57;;;;;;;2.47;2.25;;;;;;;14.91;81.51;100295.28;4347820;33;34306;-71
2022/10/27 04:33:25;;;;;;;2.35;2.15;;;;;;;15.31;79.65;100299.97;4347800;33;33287;-70
2022/10/27 04:35:57;;;;;;;3.80;3.50;;;;;;;14.81;81.91;100307.66;4347776;33;33162;-71
2022/10/27 04:38:25;;;;;;;3.47;3.20;;;;;;;15.00;81.09;100299.53;4347702;33;35903;-70
2022/10/27 04:40:53;;;;;;;2.83;2.62;;;;;;;14.84;81.88;100305.00;4334389;33;34507;-71
2022/10/27 04:43:21;;;;;;;7.28;1.45;;;;;;;14.73;82.79;100314.75;4347639;33;33405;-71
2022/10/27 04:45:49;;;;;;;2.90;2.70;;;;;;;14.90;82.03;100311.91;4347881;33;34090;-71
2022/10/27 04:48:17;;;;;;;2.15;2.00;;;;;;;15.15;79.99;100320.31;4336050;33;34346;-70
2022/10/27 04:50:45;;;;;;;5.37;4.25;;;;;;;14.97;81.57;100317.06;4349561;33;34425;-70
2022/10/27 04:53:13;;;;;;;3.28;2.72;;;;;;;14.95;81.28;100321.47;4336315;33;34444;-70
2022/10/27 04:55:41;;;;;;;3.60;3.37;;;;;;;15.48;78.17;100318.97;4349494;33;33996;-70
2022/10/27 04:58:09;;;;;;;5.07;2.70;;;;;;;15.21;80.00;100316.75;4349811;33;35719;-71
2022/10/27 05:00:37;;;;;;;3.17;2.87;;;;;;;14.87;80.63;100323.28;4349558;33;34624;-71
2022/10/27 05:03:05;;;;;;;3.17;2.87;;;;;;;14.79;81.32;100333.03;4349714;33;34422;-71
2022/10/27 05:05:33;;;;;;;3.33;2.37;;;;;;;14.52;82.31;100336.78;4349443;33;34065;-71
2022/10/27 05:08:02;;;;;;;3.03;2.37;;;;;;;14.61;81.76;100341.97;4349522;33;35914;-71
2022/10/27 05:10:32;;;;;;;3.12;2.58;;;;;;;15.23;79.94;100331.59;4349309;33;35233;-71
2022/10/27 05:13:00;;;;;;;2.67;2.47;;;;;;;15.17;78.19;100336.91;4349503;33;33671;-71
2022/10/27 05:15:29;;;;;;;2.30;1.95;;;;;;;14.77;80.47;100343.53;4349497;33;34776;-71
2022/10/27 05:17:56;;;;;;;1.55;1.45;;;;;;;15.39;76.80;100336.59;4349527;33;35932;-71
2022/10/27 05:20:24;;;;;;;4.47;2.12;;;;;;;15.78;74.30;100340.41;4349383;33;34552;-71
2022/10/27 05:22:53;;;;;;;2.90;2.47;;;;;;;15.00;76.97;100338.87;4349178;33;34246;-70
2022/10/27 05:25:20;;;;;;;2.53;2.33;;;;;;;14.52;79.66;100339.41;4349413;33;34914;-71
2022/10/27 05:27:48;;;;;;;0.75;0.75;;;;;;;14.91;77.84;100343.38;4349269;33;35876;-71
2022/10/27 05:30:17;;;;;;;2.78;2.58;;;;;;;14.97;76.90;100347.66;4349416;33;34315;-71
2022/10/27 05:32:45;;;;;;;3.40;3.15;;;;;;;14.37;79.83;100353.56;4349320;33;34163;-70
2022/10/27 05:35:14;;;;;;;1.98;1.87;;;;;;;14.08;81.25;100352.06;4336207;33;34035;-71
2022/10/27 05:37:44;;;;;;;1.73;1.62;;;;;;;14.03;81.71;100356.50;4349218;33;35061;-71
2022/10/27 05:40:12;;;;;;;2.50;2.25;;;;;;;14.01;81.74;100356.50;4336114;33;34474;-71
2022/10/27 05:42:51;;;;;;;3.22;2.92;;;;;;;14.45;79.61;100364.81;4349617;33;34410;-71
2022/10/27 05:45:21;;;;;;;1.42;1.30;;;;;;;14.55;79.85;100369.06;4349306;33;34918;-71
2022/10/27 05:48:03;;;;;;;2.50;2.30;;;;;;;14.39;79.79;100368.38;4349072;33;35975;-70
2022/10/27 05:50:33;;;;;;;1.37;1.27;;;;;;;14.22;81.00;100365.94;4335764;33;32914;-71
2022/10/27 05:53:01;;;;;;;2.70;2.50;;;;;;;14.32;80.77;100369.31;4349442;33;33513;-71
2022/10/27 05:55:29;;;;;;;4.40;2.85;;;;;;;14.56;80.39;100373.44;4349239;33;33919;-71
2022/10/27 05:57:59;;;;;;;2.78;2.08;;;;;;;14.49;80.08;100379.63;4349009;33;35877;-71
2022/10/27 06:00:30;;;;;;;2.58;2.37;;;;;;;14.93;78.65;100377.41;4348957;33;34528;-70
2022/10/27 06:02:59;;;;;;;4.82;4.47;;;;;;;14.95;78.37;100379.16;4349581;33;33713;-70
2022/10/27 06:05:28;;;;;;;2.65;2.45;;;;;;;14.98;78.54;100378.22;4349119;33;33944;-71
2022/10/27 06:07:56;;;;;;;4.20;2.90;;;;;;;15.25;77.66;100379.66;4348941;33;35941;-70
2022/10/27 06:10:25;;;;;;;2.25;2.05;;;;;;;15.59;75.83;100381.81;4348899;33;35261;-70
2022/10/27 06:13:00;;;;;;;3.40;2.10;;;;;;;15.28;77.16;100384.88;4335700;33;31830;-71
2022/10/27 06:15:29;;;;;;;1.80;1.70;;;;;;;15.57;76.90;100383.59;4335951;33;33934;-71
2022/10/27 06:17:57;;;;;;;3.17;2.87;;;;;;;15.73;76.08;100389.47;4349074;33;35823;-70
2022/10/27 06:20:26;;;;;;;1.40;1.30;;;;;;;15.33;77.96;100390.03;4348963;33;35084;-71
2022/10/27 06:22:55;;;;;;;3.97;1.75;;;;;;;15.52;77.54;100391.53;4348788;33;33413;-70
2022/10/27 06:25:23;;;;;;;3.90;3.05;;;;;;;15.86;76.53;100398.06;4348474;33;34180;-71
2022/10/27 06:27:51;;;;;;;1.62;1.52;;;;;;;15.12;79.91;100401.69;4348854;33;35021;-69
2022/10/27 06:30:19;;;;;;;2.10;1.77;;;;;;;15.38;80.06;100403.13;4349266;33;34488;-70
2022/10/27 06:32:47;;;;;;;2.60;2.42;;;;;;;15.00;81.54;100407.06;4348955;33;34331;-70
2022/10/27 06:35:15;;;;;;;2.35;2.15;;;;;;;15.50;80.12;100409.06;4348921;33;34828;-71
2022/10/27 06:37:44;;;;;;;2.25;2.05;;;;;;;15.35;80.81;100404.00;4348735;33;35869;-70
2022/10/27 06:40:14;;;;;;;2.37;1.50;;;;;;;15.12;82.20;100413.06;4348833;33;34183;-71
2022/10/27 06:42:43;;;;;;;2.53;2.33;;;;;;;15.75;79.20;100411.38;4348982;33;32727;-71
2022/10/27 06:45:31;;;;;;;3.08;2.20;;;;;;;15.63;79.54;100415.00;4348999;33;34936;-71
2022/10/27 06:48:02;;;;;;;5.18;3.92;;;;;;;15.26;81.29;100423.34;4348765;33;35125;-70
2022/10/27 06:50:31;;;;;;;1.65;1.37;;;;;;;15.89;78.65;100425.16;4348841;33;34541;-71
2022/10/27 06:53:02;;;;;;;1.60;1.50;;;;;;;15.51;79.69;100420.41;4348741;33;33653;-70
2022/10/27 06:55:31;;;;;;;1.75;1.65;;;;;;;15.54;80.19;100425.62;4348855;33;34063;-70
2022/10/27 06:57:59;;;;;;;1.37;1.30;;;;;;;15.79;79.83;100426.19;4348789;33;35102;-71
2022/10/27 07:00:27;;;;;;;4.07;3.22;;;;;;;16.14;77.25;100429.16;4348706;33;33950;-70
2022/10/27 07:02:56;;;;;;;2.62;2.25;;;;;;;16.00;77.95;100432.00;4348802;33;33557;-70
2022/10/27 07:05:25;;;;;;;2.10;1.90;;;;;;;16.18;77.27;100430.84;4348552;33;34051;-71
2022/10/27 07:07:53;;;;;;;1.48;1.37;;;;;;;15.39;81.76;100426.72;4348712;33;35146;-71
2022/10/27 07:10:22;;;;;;;1.62;1.52;;;;;;;15.75;80.31;100432.38;4348018;33;34519;-70
2022/10/27 07:12:57;;;;;;;1.95;1.70;;;;;;;15.57;80.85;100441.34;4348734;33;33445;-71
2022/10/27 07:15:30;;;;;;;1.05;0.93;;;;;;;15.80;80.20;100438.44;4348865;33;34171;-70
2022/10/27 07:18:00;;;;;;;1.75;1.60;;;;;;;16.12;78.33;100445.81;4348603;33;35041;-70
2022/10/27 07:20:30;;;;;;;2.08;1.70;;;;;;;15.54;80.47;100451.88;4348623;33;34121;-71
2022/10/27 07:22:58;;;;;;;1.62;1.52;;;;;;;15.44;82.03;100450.25;4348682;33;34379;-71
2022/10/27 07:25:27;;;;;;;1.80;1.70;;;;;;;15.82;80.36;100456.78;4348456;33;34068;-70
2022/10/27 07:27:56;;;;;;;2.33;2.17;;;;;;;15.84;80.64;100455.00;4348624;33;35507;-71
2022/10/27 07:30:26;;;;;;;1.48;1.37;;;;;;;15.95;80.60;100447.81;4348472;33;34407;-71
2022/10/27 07:32:55;;;;;;;2.08;1.92;;;;;;;15.88;80.44;100452.34;4348536;33;33574;-70
2022/10/27 07:35:24;;;;;;;4.37;2.83;;;;;;;15.53;82.31;100460.66;4348479;33;34828;-71
2022/10/27 07:37:52;;;;;;;6.00;4.50;;;;;;;15.68;81.47;100465.69;4348435;33;35800;-71
2022/10/27 07:40:22;;;;;;;3.92;2.00;;;;;;;15.90;81.37;100468.94;4348395;33;34495;-70
2022/10/27 07:42:58;;;;;;;2.65;2.37;;;;;;;16.56;77.71;100481.91;4348848;33;33864;-71
2022/10/27 07:45:39;;;;;;;2.30;2.05;;;;;;;16.18;79.11;100480.78;4348459;33;34107;-70
2022/10/27 07:48:12;;;;;;;1.20;1.10;;;;;;;16.08;80.18;100475.66;4348234;33;34991;-71
2022/10/27 07:50:42;;;;;;;2.05;1.92;;;;;;;16.35;78.19;100484.00;4348378;33;35148;-71
2022/10/27 07:53:14;;;;;;;2.55;2.15;;;;;;;16.03;78.91;100488.00;4348391;33;33440;-71
2022/10/27 07:55:42;;;;;;;2.15;2.05;;;;;;;16.09;78.42;100484.41;4348315;33;34020;-71
2022/10/27 07:58:13;;;;;;;1.98;1.77;;;;;;;16.02;79.35;100490.66;4348311;33;35902;-70
2022/10/27 08:00:46;;;;;;;0.73;0.73;;;;;;;16.48;77.32;100501.31;4326737;33;34608;-70
2022/10/27 08:03:20;;;;;;;2.05;1.87;;;;;;;16.17;78.11;100502.69;4333429;33;33539;-70
2022/10/27 08:05:48;;;;;;;2.40;1.52;;;;;;;16.55;76.64;100507.31;4346109;32;33844;-70
2022/10/27 08:08:17;;;;;;;3.83;3.45;;;;;;;16.32;77.43;100512.97;4347857;33;34985;-70
2022/10/27 08:10:47;;;;;;;4.93;2.97;;;;;;;16.03;78.98;100519.53;4348017;33;34475;-71
2022/10/27 08:13:16;;;;;;;3.22;2.47;;;;;;;16.60;77.56;100517.78;4348079;33;32768;-70
2022/10/27 08:15:44;;;;;;;2.15;2.05;;;;;;;16.92;75.33;100516.38;4334737;33;33857;-71
2022/10/27 08:18:13;;;;;;;3.70;1.65;;;;;;;16.85;75.71;100526.16;4347849;33;35931;-71
2022/10/27 08:20:43;;;;;;;4.20;3.80;;;;;;;16.91;75.61;100526.06;4347901;33;35174;-70
2022/10/27 08:23:13;;;;;;;2.83;1.55;;;;;;;17.04;74.60;100521.44;4349888;33;32648;-71
2022/10/27 08:25:42;;;;;;;3.10;2.70;;;;;;;16.63;76.33;100536.16;4349500;33;34049;-71
2022/10/27 08:28:12;;;;;;;4.45;3.92;;;;;;;16.57;76.66;100529.22;4344280;32;36050;-70
2022/10/27 08:30:41;;;;;;;1.52;1.42;;;;;;;16.88;75.68;100536.63;4353666;32;35211;-70
2022/10/27 08:33:20;;;;;;;1.08;1.08;;;;;;;16.52;76.52;100538.06;4340391;32;33780;-71
2022/10/27 08:35:51;;;;;;;2.92;2.20;;;;;;;16.17;80.06;100526.34;4355639;32;33927;-71
2022/10/27 08:38:20;;;;;;;3.10;2.40;;;;;;;16.51;77.84;100536.34;4350701;32;35944;-71
2022/10/27 08:41:07;;;;;;;2.80;2.20;;;;;;;16.93;75.79;100534.78;4316435;33;34132;-71
2022/10/27 08:44:02;;;;;;;2.28;1.70;;;;;;;16.93;75.39;100533.94;4344531;33;33465;-70
2022/10/27 08:46:46;;;;;;;5.25;3.30;;;;;;;16.98;74.67;100538.19;4343906;33;33881;-71
2022/10/27 08:49:33;;;;;;;2.00;1.85;;;;;;;16.46;76.05;100539.88;4328418;33;36013;-70
2022/10/27 08:52:20;;;;;;;1.50;1.33;;;;;;;16.38;76.80;100531.28;4341618;33;34954;-70
2022/10/27 08:54:53;;;;;;;3.33;3.03;;;;;;;16.55;77.33;100538.03;4341741;33;33461;-71
2022/10/27 08:57:25;;;;;;;1.10;1.00;;;;;;;16.56;75.76;100535.37;4328309;33;33949;-71
2022/10/27 08:59:54;;;;;;;1.75;1.65;;;;;;;16.82;75.57;100529.69;4327509;33;35041;-71
2022/10/27 09:02:49;;;;;;;1.52;1.42;;;;;;;16.91;75.24;100533.94;4326847;32;35398;-70
2022/10/27 09:05:34;;;;;;;7.40;4.55;;;;;;;16.77;76.82;100534.16;4352923;32;34212;-71
2022/10/27 09:08:29;;;;;;;3.33;2.13;;;;;;;16.43;77.87;100539.97;4354171;32;34110;-70
2022/10/27 09:11:18;;;;;;;2.22;1.83;;;;;;;16.73;77.12;100534.22;4340594;32;35808;-70
2022/10/27 09:14:02;;;;;;;3.78;2.95;;;;;;;17.04;73.83;100532.81;4335965;33;34495;-71
2022/10/27 09:16:41;;;;;;;1.55;1.45;;;;;;;17.28;73.90;100530.62;4333406;33;33293;-71
2022/10/27 09:19:15;;;;;;;4.70;3.55;;;;;;;16.80;76.87;100534.09;4332570;33;34812;-71
2022/10/27 09:21:43;;;;;;;2.62;2.40;;;;;;;16.51;76.61;100537.19;4334615;33;35147;-70
2022/10/27 09:24:13;;;;;;;6.97;4.55;;;;;;;16.67;76.41;100540.44;4342473;33;34585;-70
2022/10/27 09:26:42;;;;;;;3.87;3.12;;;;;;;16.43;76.89;100536.44;4322528;33;34358;-70
2022/10/27 09:29:18;;;;;;;1.95;1.85;;;;;;;16.50;76.75;100540.75;4321618;33;34148;-71
2022/10/27 09:31:48;;;;;;;7.10;3.83;;;;;;;16.91;75.03;100539.22;4333156;33;35005;-71
2022/10/27 09:34:27;;;;;;;1.83;1.73;;;;;;;16.92;75.46;100540.94;4333363;33;34171;-71
2022/10/27 09:36:55;;;;;;;2.67;2.17;;;;;;;16.42;77.04;100542.63;4320932;33;34393;-70
2022/10/27 09:39:24;;;;;;;3.05;2.75;;;;;;;16.90;76.13;100533.97;4333012;33;34067;-70
2022/10/27 09:41:52;;;;;;;2.92;2.33;;;;;;;17.36;75.18;100538.37;4334058;33;35140;-71
2022/10/27 09:44:22;;;;;;;2.87;2.67;;;;;;;16.89;76.68;100532.22;4334276;33;34297;-71
2022/10/27 09:46:55;;;;;;;2.78;1.58;;;;;;;16.82;76.47;100531.44;4334192;33;33506;-71
2022/10/27 09:49:36;;;;;;;4.68;4.20;;;;;;;17.28;75.11;100535.00;4334421;33;33887;-71
2022/10/27 09:52:14;;;;;;;4.07;3.75;;;;;;;17.36;75.33;100538.37;4334405;33;35886;-71
2022/10/27 09:54:53;;;;;;;2.33;2.12;;;;;;;16.90;77.62;100539.22;4334453;33;34475;-71
2022/10/27 09:57:33;;;;;;;2.03;1.90;;;;;;;17.46;76.04;100539.06;4321482;33;34179;-71
2022/10/27 10:00:06;;;;;;;2.72;2.35;;;;;;;17.38;75.81;100534.84;4333314;33;34756;-71
2022/10/27 10:02:39;;;;;;;1.80;1.70;;;;;;;17.75;74.00;100535.81;4334371;33;35118;-71
2022/10/27 10:05:23;;;;;;;3.47;1.92;;;;;;;17.49;75.52;100539.88;4334348;33;35444;-71
2022/10/27 10:07:53;;;;;;;2.70;2.20;;;;;;;17.51;76.48;100532.81;4333348;33;33443;-71
2022/10/27 10:10:25;;;;;;;2.90;2.28;;;;;;;17.72;75.13;100538.56;4334249;33;33871;-71
2022/10/27 10:13:02;;;;;;;3.20;2.42;;;;;;;18.00;73.14;100542.34;4320884;33;35247;-71
2022/10/27 10:15:35;;;;;;;3.53;2.67;;;;;;;17.96;71.94;100545.94;4334336;33;35270;-71
2022/10/27 10:18:04;;;;;;;4.75;1.98;;;;;;;17.74;73.04;100542.88;4334397;33;33710;-71
2022/10/27 10:20:33;;;;;;;2.80;2.60;;;;;;;17.81;72.60;100541.84;4334244;33;33974;-71
2022/10/27 10:23:03;;;;;;;3.67;2.87;;;;;;;18.05;72.51;100544.88;4334302;33;35212;-71
2022/10/27 10:25:33;;;;;;;5.50;2.95;;;;;;;17.80;72.80;100541.87;4320922;33;33857;-71
2022/10/27 10:28:05;;;;;;;2.47;2.28;;;;;;;17.80;72.67;100544.50;4334252;33;34436;-71
2022/10/27 10:30:38;;;;;;;1.37;1.27;;;;;;;18.05;71.84;100542.22;4320859;33;33918;-71
2022/10/27 10:33:14;;;;;;;2.35;2.15;;;;;;;18.13;72.09;100542.06;4334517;33;35220;-71
2022/10/27 10:35:46;;;;;;;3.58;3.10;;;;;;;17.89;72.84;100544.34;4334189;33;35341;-71
2022/10/27 10:38:23;;;;;;;3.87;2.40;;;;;;;17.26;76.77;100542.97;4321354;33;34253;-70
2022/10/27 10:41:15;;;;;;;3.20;2.00;;;;;;;17.82;75.01;100547.97;4334351;33;34107;-71
2022/10/27 10:43:43;;;;;;;2.40;2.17;;;;;;;17.72;75.00;100536.78;4333234;33;35105;-71
2022/10/27 10:46:21;;;;;;;2.17;2.03;;;;;;;18.04;73.87;100537.88;4334066;33;34647;-71
2022/10/27 10:48:59;;;;;;;3.25;2.05;;;;;;;18.04;73.21;100540.50;4334085;33;33566;-71
2022/10/27 10:51:30;;;;;;;2.85;2.65;;;;;;;18.11;72.79;100534.19;4321060;33;34118;-71
2022/10/27 10:54:04;;;;;;;2.90;2.70;;;;;;;18.78;69.75;100536.13;4334023;33;35045;-71
2022/10/27 10:56:34;;;;;;;3.65;3.33;;;;;;;18.57;71.83;100534.88;4334127;33;34577;-71
2022/10/27 10:59:11;;;;;;;2.85;2.65;;;;;;;18.40;72.11;100534.44;4333999;33;32672;-71
2022/10/27 11:01:45;;;;;;;3.05;2.80;;;;;;;18.31;72.36;100531.09;4334061;33;34745;-71
2022/10/27 11:04:17;;;;;;;2.45;2.25;;;;;;;18.67;70.63;100549.59;4333975;33;34764;-71
2022/10/27 11:06:54;;;;;;;3.85;3.53;;;;;;;18.59;70.78;100535.72;4334040;33;34578;-72
2022/10/27 11:09:24;;;;;;;3.15;2.55;;;;;;;18.96;69.14;100545.37;4333900;33;34386;-71
2022/10/27 11:11:53;;;;;;;3.50;2.00;;;;;;;18.68;67.71;100546.03;4332872;33;33256;-71
2022/10/27 11:14:23;;;;;;;3.80;2.30;;;;;;;18.95;67.42;100543.62;4324514;33;34898;-71
2022/10/27 11:16:54;;;;;;;6.62;3.50;;;;;;;18.89;67.97;100539.38;4348761;33;34775;-72
2022/10/27 11:19:23;;;;;;;5.20;4.70;;;;;;;19.09;69.49;100543.25;4335481;33;34289;-72
2022/10/27 11:21:52;;;;;;;18.08;3.85;;;;;;;19.27;69.11;100540.12;4335429;33;33897;-71
2022/10/27 11:24:33;;;;;;;2.05;1.65;;;;;;;19.45;67.13;100538.75;4347399;33;35115;-72
2022/10/27 11:27:05;;;;;;;2.22;1.30;;;;;;;19.13;68.95;100540.50;4347579;33;35286;-72
2022/10/27 11:30:01;;;;;;;3.92;3.37;;;;;;;19.05;68.99;100537.19;4335251;33;33475;-71
2022/10/27 11:33:14;;;;;;;2.45;2.05;;;;;;;19.44;66.57;100534.38;4335899;33;34877;-73
2022/10/27 11:35:44;;;;;;;3.22;2.92;;;;;;;20.23;63.93;100525.00;4348600;33;35132;-74
2022/10/27 11:38:24;;;;;;;3.60;2.05;;;;;;;19.58;66.22;100528.69;4348607;33;34548;-74
2022/10/27 11:40:56;;;;;;;3.12;2.83;;;;;;;20.24;63.28;100526.75;4348504;33;33440;-73
2022/10/27 11:43:34;;;;;;;2.35;1.85;;;;;;;20.53;63.00;100524.06;4348549;33;33960;-73
2022/10/27 11:46:05;;;;;;;1.95;1.85;;;;;;;20.87;61.22;100507.94;4344333;33;35036;-74